Terminal Aerodrome Forecast
Issued by NWS Cleveland, OH

Home | Current Version | Previous Version | Text Only | Print | Product List | Glossary On
Versions: 1 2 3 4 5 6 7 8 9 10 11 12 13 14 15 16
000
FTUS41 KCLE 281122
TAFYNG
TAF
KYNG 281122Z 2812/2912 23004KT P6SM SCT150
     FM281800 20007KT P6SM BKN200
     FM290600 12005KT P6SM OVC025
     FM290700 21005KT 5SM -SHRA OVC015=

USA.gov is the U.S. government's official web portal to all federal, state and local government web resources and services.